sensor_id;sensor_type;location;lat;lon;timestamp;temperature;humidity
57058;DHT22;55017;52.848;6.748;2022-11-21T00:02:24;1.50;99.90
57058;DHT22;55017;52.848;6.748;2022-11-21T00:04:50;1.60;99.90
57058;DHT22;55017;52.848;6.748;2022-11-21T00:07:15;1.50;99.90
57058;DHT22;55017;52.848;6.748;2022-11-21T00:09:41;1.50;99.90
57058;DHT22;55017;52.848;6.748;2022-11-21T00:12:06;1.60;99.90
57058;DHT22;55017;52.848;6.748;2022-11-21T00:14:33;1.50;99.90
57058;DHT22;55017;52.848;6.748;2022-11-21T00:16:58;1.50;99.90
57058;DHT22;55017;52.848;6.748;2022-11-21T00:19:24;1.60;99.90
57058;DHT22;55017;52.848;6.748;2022-11-21T00:21:49;1.50;99.90
57058;DHT22;55017;52.848;6.748;2022-11-21T00:24:15;1.40;99.90
57058;DHT22;55017;52.848;6.748;2022-11-21T00:26:41;1.50;99.90
57058;DHT22;55017;52.848;6.748;2022-11-21T00:29:06;1.50;99.90
57058;DHT22;55017;52.848;6.748;2022-11-21T00:31:32;1.40;99.90
57058;DHT22;55017;52.848;6.748;2022-11-21T00:33:57;1.50;99.90
57058;DHT22;55017;52.848;6.748;2022-11-21T00:36:23;1.40;99.90
57058;DHT22;55017;52.848;6.748;2022-11-21T00:38:49;1.40;99.90
57058;DHT22;55017;52.848;6.748;2022-11-21T00:41:14;1.30;99.90
57058;DHT22;55017;52.848;6.748;2022-11-21T00:43:40;1.40;99.90
57058;DHT22;55017;52.848;6.748;2022-11-21T00:46:05;1.40;99.90
57058;DHT22;55017;52.848;6.748;2022-11-21T00:48:31;1.50;99.90
57058;DHT22;55017;52.848;6.748;2022-11-21T00:50:57;1.50;99.90
57058;DHT22;55017;52.848;6.748;2022-11-21T00:53:24;1.60;99.90
57058;DHT22;55017;52.848;6.748;2022-11-21T00:55:50;1.50;99.90
57058;DHT22;55017;52.848;6.748;2022-11-21T00:58:15;1.40;99.90
57058;DHT22;55017;52.848;6.748;2022-11-21T01:00:41;1.40;99.90
57058;DHT22;55017;52.848;6.748;2022-11-21T01:03:07;1.40;99.90
57058;DHT22;55017;52.848;6.748;2022-11-21T01:05:32;1.30;99.90
57058;DHT22;55017;52.848;6.748;2022-11-21T01:07:58;1.40;99.90
57058;DHT22;55017;52.848;6.748;2022-11-21T01:10:23;1.30;99.90
57058;DHT22;55017;52.848;6.748;2022-11-21T01:12:49;1.30;99.90
57058;DHT22;55017;52.848;6.748;2022-11-21T01:15:14;1.20;99.90
57058;DHT22;55017;52.848;6.748;2022-11-21T01:17:40;1.30;99.90
57058;DHT22;55017;52.848;6.748;2022-11-21T01:20:07;1.20;99.90
57058;DHT22;55017;52.848;6.748;2022-11-21T01:22:32;1.20;99.90
57058;DHT22;55017;52.848;6.748;2022-11-21T01:24:58;1.20;99.90
57058;DHT22;55017;52.848;6.748;2022-11-21T01:27:24;1.20;99.90
57058;DHT22;55017;52.848;6.748;2022-11-21T01:29:49;1.10;99.90
57058;DHT22;55017;52.848;6.748;2022-11-21T01:32:17;1.10;99.90
57058;DHT22;55017;52.848;6.748;2022-11-21T01:34:43;1.20;99.90
57058;DHT22;55017;52.848;6.748;2022-11-21T01:37:08;1.20;99.90
57058;DHT22;55017;52.848;6.748;2022-11-21T01:39:34;1.20;99.90
57058;DHT22;55017;52.848;6.748;2022-11-21T01:41:59;1.20;99.90
57058;DHT22;55017;52.848;6.748;2022-11-21T01:44:44;1.10;99.90
57058;DHT22;55017;52.848;6.748;2022-11-21T01:47:10;1.20;99.90
57058;DHT22;55017;52.848;6.748;2022-11-21T01:49:37;1.10;99.90
57058;DHT22;55017;52.848;6.748;2022-11-21T01:52:10;1.10;99.90
57058;DHT22;55017;52.848;6.748;2022-11-21T01:54:55;1.20;99.90
57058;DHT22;55017;52.848;6.748;2022-11-21T01:57:28;1.00;99.90
57058;DHT22;55017;52.848;6.748;2022-11-21T02:00:03;1.00;99.90
57058;DHT22;55017;52.848;6.748;2022-11-21T02:02:33;1.20;99.90
57058;DHT22;55017;52.848;6.748;2022-11-21T02:05:02;1.10;99.90
57058;DHT22;55017;52.848;6.748;2022-11-21T02:07:33;1.10;99.90
57058;DHT22;55017;52.848;6.748;2022-11-21T02:10:01;1.00;99.90
57058;DHT22;55017;52.848;6.748;2022-11-21T02:12:44;0.90;99.90
57058;DHT22;55017;52.848;6.748;2022-11-21T02:15:11;0.90;99.90
57058;DHT22;55017;52.848;6.748;2022-11-21T02:17:37;0.90;99.90
57058;DHT22;55017;52.848;6.748;2022-11-21T02:20:08;0.90;99.90
57058;DHT22;55017;52.848;6.748;2022-11-21T02:23:02;0.80;99.90
57058;DHT22;55017;52.848;6.748;2022-11-21T02:25:33;0.80;99.90
57058;DHT22;55017;52.848;6.748;2022-11-21T02:28:03;0.70;99.90
57058;DHT22;55017;52.848;6.748;2022-11-21T02:30:31;0.60;99.90
57058;DHT22;55017;52.848;6.748;2022-11-21T02:32:57;0.70;99.90
57058;DHT22;55017;52.848;6.748;2022-11-21T02:35:23;0.60;99.90
57058;DHT22;55017;52.848;6.748;2022-11-21T02:40:41;0.40;99.90
57058;DHT22;55017;52.848;6.748;2022-11-21T02:43:26;0.50;99.90
57058;DHT22;55017;52.848;6.748;2022-11-21T02:45:52;0.40;99.90
57058;DHT22;55017;52.848;6.748;2022-11-21T02:48:18;0.40;99.90
57058;DHT22;55017;52.848;6.748;2022-11-21T02:50:45;0.30;99.90
57058;DHT22;55017;52.848;6.748;2022-11-21T02:53:13;0.20;99.90
57058;DHT22;55017;52.848;6.748;2022-11-21T02:55:39;0.10;99.90
57058;DHT22;55017;52.848;6.748;2022-11-21T02:58:06;0.00;99.90
57058;DHT22;55017;52.848;6.748;2022-11-21T03:00:32;0.00;99.90
57058;DHT22;55017;52.848;6.748;2022-11-21T03:02:58;0.00;99.90
57058;DHT22;55017;52.848;6.748;2022-11-21T03:05:24;0.00;99.90
57058;DHT22;55017;52.848;6.748;2022-11-21T03:07:50;0.10;99.90
57058;DHT22;55017;52.848;6.748;2022-11-21T03:10:15;0.00;99.90
57058;DHT22;55017;52.848;6.748;2022-11-21T03:12:42;-0.10;99.90
57058;DHT22;55017;52.848;6.748;2022-11-21T03:15:10;0.00;99.90
57058;DHT22;55017;52.848;6.748;2022-11-21T03:17:37;0.00;99.90
57058;DHT22;55017;52.848;6.748;2022-11-21T03:20:03;-0.20;99.90
57058;DHT22;55017;52.848;6.748;2022-11-21T03:22:29;-0.30;99.90
57058;DHT22;55017;52.848;6.748;2022-11-21T03:24:54;-0.20;99.90
57058;DHT22;55017;52.848;6.748;2022-11-21T03:27:20;-0.40;99.90
57058;DHT22;55017;52.848;6.748;2022-11-21T03:29:46;-0.20;99.90
57058;DHT22;55017;52.848;6.748;2022-11-21T03:32:11;-0.40;99.90
57058;DHT22;55017;52.848;6.748;2022-11-21T03:34:37;-0.40;99.90
57058;DHT22;55017;52.848;6.748;2022-11-21T03:37:02;-0.50;99.90
57058;DHT22;55017;52.848;6.748;2022-11-21T03:39:29;-0.40;99.90
57058;DHT22;55017;52.848;6.748;2022-11-21T03:41:55;-0.40;99.90
57058;DHT22;55017;52.848;6.748;2022-11-21T03:44:20;-0.40;99.90
57058;DHT22;55017;52.848;6.748;2022-11-21T03:46:46;-0.30;99.90
57058;DHT22;55017;52.848;6.748;2022-11-21T03:49:12;-0.30;99.90
57058;DHT22;55017;52.848;6.748;2022-11-21T03:51:38;-0.30;99.90
57058;DHT22;55017;52.848;6.748;2022-11-21T03:54:05;-0.30;99.90
57058;DHT22;55017;52.848;6.748;2022-11-21T03:56:31;-0.30;99.90
57058;DHT22;55017;52.848;6.748;2022-11-21T03:58:57;-0.40;99.90
57058;DHT22;55017;52.848;6.748;2022-11-21T04:01:23;-0.30;99.90
57058;DHT22;55017;52.848;6.748;2022-11-21T04:03:49;-0.50;99.90
57058;DHT22;55017;52.848;6.748;2022-11-21T04:06:18;-0.50;99.90
57058;DHT22;55017;52.848;6.748;2022-11-21T04:08:44;-0.40;99.90
57058;DHT22;55017;52.848;6.748;2022-11-21T04:11:10;-0.50;99.90
57058;DHT22;55017;52.848;6.748;2022-11-21T04:13:36;-0.50;99.90
57058;DHT22;55017;52.848;6.748;2022-11-21T04:16:02;-0.60;99.90
57058;DHT22;55017;52.848;6.748;2022-11-21T04:18:28;-0.50;99.90
57058;DHT22;55017;52.848;6.748;2022-11-21T04:20:57;-0.60;99.90
57058;DHT22;55017;52.848;6.748;2022-11-21T04:23:24;-0.60;99.90
57058;DHT22;55017;52.848;6.748;2022-11-21T04:25:50;-0.70;99.90
57058;DHT22;55017;52.848;6.748;2022-11-21T04:28:15;-0.60;99.90
57058;DHT22;55017;52.848;6.748;2022-11-21T04:30:41;-0.60;99.90
57058;DHT22;55017;52.848;6.748;2022-11-21T04:33:07;-0.70;99.90
57058;DHT22;55017;52.848;6.748;2022-11-21T04:35:33;-0.70;99.90
57058;DHT22;55017;52.848;6.748;2022-11-21T04:37:58;-0.80;99.90
57058;DHT22;55017;52.848;6.748;2022-11-21T04:40:24;-0.80;99.90
57058;DHT22;55017;52.848;6.748;2022-11-21T04:42:50;-0.80;99.90
57058;DHT22;55017;52.848;6.748;2022-11-21T04:45:16;-0.90;99.90
57058;DHT22;55017;52.848;6.748;2022-11-21T04:47:43;-0.90;99.90
57058;DHT22;55017;52.848;6.748;2022-11-21T04:50:12;-0.80;99.90
57058;DHT22;55017;52.848;6.748;2022-11-21T04:52:37;-0.90;99.90
57058;DHT22;55017;52.848;6.748;2022-11-21T04:55:04;-0.80;99.90
57058;DHT22;55017;52.848;6.748;2022-11-21T04:57:30;-1.00;99.90
57058;DHT22;55017;52.848;6.748;2022-11-21T04:59:56;-1.00;99.90
57058;DHT22;55017;52.848;6.748;2022-11-21T05:02:21;-0.90;99.90
57058;DHT22;55017;52.848;6.748;2022-11-21T05:04:47;-1.10;99.90
57058;DHT22;55017;52.848;6.748;2022-11-21T05:07:13;-1.00;99.90
57058;DHT22;55017;52.848;6.748;2022-11-21T05:09:39;-1.10;99.90
57058;DHT22;55017;52.848;6.748;2022-11-21T05:12:05;-1.10;99.90
57058;DHT22;55017;52.848;6.748;2022-11-21T05:14:49;-1.00;99.90
57058;DHT22;55017;52.848;6.748;2022-11-21T05:17:14;-1.20;99.90
57058;DHT22;55017;52.848;6.748;2022-11-21T05:19:40;-1.20;99.90
57058;DHT22;55017;52.848;6.748;2022-11-21T05:22:06;-1.20;99.90
57058;DHT22;55017;52.848;6.748;2022-11-21T05:24:31;-1.20;99.90
57058;DHT22;55017;52.848;6.748;2022-11-21T05:26:57;-1.20;99.90
57058;DHT22;55017;52.848;6.748;2022-11-21T05:29:22;-1.20;99.90
57058;DHT22;55017;52.848;6.748;2022-11-21T05:31:48;-1.20;99.90
57058;DHT22;55017;52.848;6.748;2022-11-21T05:34:14;-1.20;99.90
57058;DHT22;55017;52.848;6.748;2022-11-21T05:36:39;-1.20;99.90
57058;DHT22;55017;52.848;6.748;2022-11-21T05:39:05;-1.30;99.90
57058;DHT22;55017;52.848;6.748;2022-11-21T05:41:30;-1.20;99.90
57058;DHT22;55017;52.848;6.748;2022-11-21T05:43:56;-1.30;99.90
57058;DHT22;55017;52.848;6.748;2022-11-21T05:46:23;-1.30;99.90
57058;DHT22;55017;52.848;6.748;2022-11-21T05:48:50;-1.30;99.90
57058;DHT22;55017;52.848;6.748;2022-11-21T05:51:16;-1.20;99.90
57058;DHT22;55017;52.848;6.748;2022-11-21T05:53:43;-1.30;99.90
57058;DHT22;55017;52.848;6.748;2022-11-21T05:56:14;-1.30;99.90
57058;DHT22;55017;52.848;6.748;2022-11-21T05:58:40;-1.10;99.90
57058;DHT22;55017;52.848;6.748;2022-11-21T06:01:08;-1.30;99.90
57058;DHT22;55017;52.848;6.748;2022-11-21T06:03:36;-1.30;99.90
57058;DHT22;55017;52.848;6.748;2022-11-21T06:06:03;-1.30;99.90
57058;DHT22;55017;52.848;6.748;2022-11-21T06:08:31;-1.40;99.90
57058;DHT22;55017;52.848;6.748;2022-11-21T06:10:57;-1.30;99.90
57058;DHT22;55017;52.848;6.748;2022-11-21T06:13:22;-1.40;99.90
57058;DHT22;55017;52.848;6.748;2022-11-21T06:15:53;-1.50;99.90
57058;DHT22;55017;52.848;6.748;2022-11-21T06:18:21;-1.40;99.90
57058;DHT22;55017;52.848;6.748;2022-11-21T06:20:47;-1.40;99.90
57058;DHT22;55017;52.848;6.748;2022-11-21T06:23:12;-1.30;99.90
57058;DHT22;55017;52.848;6.748;2022-11-21T06:25:38;-1.30;99.90
57058;DHT22;55017;52.848;6.748;2022-11-21T06:28:04;-1.20;99.90
57058;DHT22;55017;52.848;6.748;2022-11-21T06:30:29;-1.20;99.90
57058;DHT22;55017;52.848;6.748;2022-11-21T06:32:55;-1.20;99.90
57058;DHT22;55017;52.848;6.748;2022-11-21T06:35:20;-1.00;99.90
57058;DHT22;55017;52.848;6.748;2022-11-21T06:37:46;-1.10;99.90
57058;DHT22;55017;52.848;6.748;2022-11-21T06:40:11;-1.10;99.90
57058;DHT22;55017;52.848;6.748;2022-11-21T06:42:37;-1.00;99.90
57058;DHT22;55017;52.848;6.748;2022-11-21T06:45:03;-0.90;99.90
57058;DHT22;55017;52.848;6.748;2022-11-21T06:47:32;-1.00;99.90
57058;DHT22;55017;52.848;6.748;2022-11-21T06:49:59;-0.90;99.90
57058;DHT22;55017;52.848;6.748;2022-11-21T06:52:25;-1.00;99.90
57058;DHT22;55017;52.848;6.748;2022-11-21T06:54:50;-0.90;99.90
57058;DHT22;55017;52.848;6.748;2022-11-21T06:57:16;-0.90;99.90
57058;DHT22;55017;52.848;6.748;2022-11-21T06:59:41;-0.80;99.90
57058;DHT22;55017;52.848;6.748;2022-11-21T07:02:11;-1.00;99.90
57058;DHT22;55017;52.848;6.748;2022-11-21T07:04:37;-0.80;99.90
57058;DHT22;55017;52.848;6.748;2022-11-21T07:07:03;-0.90;99.90
57058;DHT22;55017;52.848;6.748;2022-11-21T07:09:28;-0.90;99.90
57058;DHT22;55017;52.848;6.748;2022-11-21T07:11:54;-1.00;99.90
57058;DHT22;55017;52.848;6.748;2022-11-21T07:14:19;-1.00;99.90
57058;DHT22;55017;52.848;6.748;2022-11-21T07:16:45;-1.00;99.90
57058;DHT22;55017;52.848;6.748;2022-11-21T07:19:10;-1.00;99.90
57058;DHT22;55017;52.848;6.748;2022-11-21T07:21:36;-1.00;99.90
57058;DHT22;55017;52.848;6.748;2022-11-21T07:24:02;-1.00;99.90
57058;DHT22;55017;52.848;6.748;2022-11-21T07:26:28;-0.80;99.90
57058;DHT22;55017;52.848;6.748;2022-11-21T07:28:53;-0.90;99.90
57058;DHT22;55017;52.848;6.748;2022-11-21T07:31:19;-0.60;99.90
57058;DHT22;55017;52.848;6.748;2022-11-21T07:33:44;-0.80;99.90
57058;DHT22;55017;52.848;6.748;2022-11-21T07:36:12;-0.90;99.90
57058;DHT22;55017;52.848;6.748;2022-11-21T07:38:37;-0.80;99.90
57058;DHT22;55017;52.848;6.748;2022-11-21T07:41:03;-0.90;99.90
57058;DHT22;55017;52.848;6.748;2022-11-21T07:43:28;-0.80;99.90
57058;DHT22;55017;52.848;6.748;2022-11-21T07:45:55;-0.80;99.90
57058;DHT22;55017;52.848;6.748;2022-11-21T07:48:20;-0.90;99.90
57058;DHT22;55017;52.848;6.748;2022-11-21T07:50:46;-0.80;99.90
57058;DHT22;55017;52.848;6.748;2022-11-21T07:53:12;-0.70;99.90
57058;DHT22;55017;52.848;6.748;2022-11-21T07:55:38;-0.70;99.90
57058;DHT22;55017;52.848;6.748;2022-11-21T07:58:09;-0.70;99.90
57058;DHT22;55017;52.848;6.748;2022-11-21T08:00:37;-0.70;99.90
57058;DHT22;55017;52.848;6.748;2022-11-21T08:03:03;-0.60;99.90
57058;DHT22;55017;52.848;6.748;2022-11-21T08:05:30;-0.60;99.90
57058;DHT22;55017;52.848;6.748;2022-11-21T08:07:55;-0.50;99.90
57058;DHT22;55017;52.848;6.748;2022-11-21T08:10:21;-0.40;99.90
57058;DHT22;55017;52.848;6.748;2022-11-21T08:12:46;-0.30;99.90
57058;DHT22;55017;52.848;6.748;2022-11-21T08:15:12;-0.30;99.90
57058;DHT22;55017;52.848;6.748;2022-11-21T08:17:38;-0.20;99.90
57058;DHT22;55017;52.848;6.748;2022-11-21T08:20:05;-0.20;99.90
57058;DHT22;55017;52.848;6.748;2022-11-21T08:22:31;-0.20;99.90
57058;DHT22;55017;52.848;6.748;2022-11-21T08:24:57;-0.10;99.90
57058;DHT22;55017;52.848;6.748;2022-11-21T08:27:22;0.00;99.90
57058;DHT22;55017;52.848;6.748;2022-11-21T08:29:49;0.20;99.90
57058;DHT22;55017;52.848;6.748;2022-11-21T08:32:14;0.30;99.90
57058;DHT22;55017;52.848;6.748;2022-11-21T08:34:40;0.30;99.90
57058;DHT22;55017;52.848;6.748;2022-11-21T08:37:05;0.50;99.90
57058;DHT22;55017;52.848;6.748;2022-11-21T08:39:31;0.60;99.90
57058;DHT22;55017;52.848;6.748;2022-11-21T08:41:57;0.90;99.90
57058;DHT22;55017;52.848;6.748;2022-11-21T08:44:30;1.10;99.90
57058;DHT22;55017;52.848;6.748;2022-11-21T08:46:56;1.50;99.90
57058;DHT22;55017;52.848;6.748;2022-11-21T08:49:22;1.60;99.90
57058;DHT22;55017;52.848;6.748;2022-11-21T08:51:47;1.80;99.90
57058;DHT22;55017;52.848;6.748;2022-11-21T08:54:17;1.90;99.90
57058;DHT22;55017;52.848;6.748;2022-11-21T08:56:43;2.00;99.90
57058;DHT22;55017;52.848;6.748;2022-11-21T08:59:09;1.80;99.90
57058;DHT22;55017;52.848;6.748;2022-11-21T09:01:35;1.70;99.90
57058;DHT22;55017;52.848;6.748;2022-11-21T09:04:01;1.70;99.90
57058;DHT22;55017;52.848;6.748;2022-11-21T09:06:26;1.60;99.90
57058;DHT22;55017;52.848;6.748;2022-11-21T09:08:52;1.60;99.90
57058;DHT22;55017;52.848;6.748;2022-11-21T09:11:17;1.60;99.90
57058;DHT22;55017;52.848;6.748;2022-11-21T09:13:43;1.60;99.90
57058;DHT22;55017;52.848;6.748;2022-11-21T09:16:29;1.70;99.90
57058;DHT22;55017;52.848;6.748;2022-11-21T09:19:13;1.80;99.90
57058;DHT22;55017;52.848;6.748;2022-11-21T09:21:38;1.60;99.90
57058;DHT22;55017;52.848;6.748;2022-11-21T09:24:04;1.40;99.90
57058;DHT22;55017;52.848;6.748;2022-11-21T09:26:29;1.40;99.90
57058;DHT22;55017;52.848;6.748;2022-11-21T09:28:55;1.30;99.90
57058;DHT22;55017;52.848;6.748;2022-11-21T09:31:21;1.20;99.90
57058;DHT22;55017;52.848;6.748;2022-11-21T09:33:47;1.30;99.90
57058;DHT22;55017;52.848;6.748;2022-11-21T09:36:13;1.20;99.90
57058;DHT22;55017;52.848;6.748;2022-11-21T09:38:38;1.30;99.90
57058;DHT22;55017;52.848;6.748;2022-11-21T09:41:34;1.20;99.90
57058;DHT22;55017;52.848;6.748;2022-11-21T09:47:04;1.20;99.90
57058;DHT22;55017;52.848;6.748;2022-11-21T09:49:40;1.20;99.90
57058;DHT22;55017;52.848;6.748;2022-11-21T09:52:10;1.20;99.90
57058;DHT22;55017;52.848;6.748;2022-11-21T09:54:45;1.40;99.90
57058;DHT22;55017;52.848;6.748;2022-11-21T09:57:14;1.30;99.90
57058;DHT22;55017;52.848;6.748;2022-11-21T09:59:42;1.20;99.90
57058;DHT22;55017;52.848;6.748;2022-11-21T10:02:17;1.30;99.90
57058;DHT22;55017;52.848;6.748;2022-11-21T10:04:46;1.20;99.90
57058;DHT22;55017;52.848;6.748;2022-11-21T10:07:16;1.30;99.90
57058;DHT22;55017;52.848;6.748;2022-11-21T10:12:32;1.30;99.90
57058;DHT22;55017;52.848;6.748;2022-11-21T10:15:25;1.20;99.90
57058;DHT22;55017;52.848;6.748;2022-11-21T10:26:55;1.40;99.90
57058;DHT22;55017;52.848;6.748;2022-11-21T10:32:36;1.60;99.90
57058;DHT22;55017;52.848;6.748;2022-11-21T10:35:22;1.70;99.90
57058;DHT22;55017;52.848;6.748;2022-11-21T10:37:52;1.70;99.90
57058;DHT22;55017;52.848;6.748;2022-11-21T10:43:30;1.90;99.90
57058;DHT22;55017;52.848;6.748;2022-11-21T10:46:17;2.00;99.90
57058;DHT22;55017;52.848;6.748;2022-11-21T10:48:48;2.20;99.90
57058;DHT22;55017;52.848;6.748;2022-11-21T10:54:07;2.50;99.90
57058;DHT22;55017;52.848;6.748;2022-11-21T10:56:52;2.90;99.90
57058;DHT22;55017;52.848;6.748;2022-11-21T10:59:27;3.50;99.90
57058;DHT22;55017;52.848;6.748;2022-11-21T11:04:42;3.70;99.90
57058;DHT22;55017;52.848;6.748;2022-11-21T11:07:26;3.60;99.90
57058;DHT22;55017;52.848;6.748;2022-11-21T11:09:52;3.70;99.90
57058;DHT22;55017;52.848;6.748;2022-11-21T11:12:37;3.70;99.90
57058;DHT22;55017;52.848;6.748;2022-11-21T11:15:24;4.30;99.90
57058;DHT22;55017;52.848;6.748;2022-11-21T11:17:56;4.70;99.90
57058;DHT22;55017;52.848;6.748;2022-11-21T11:20:37;4.70;99.90
57058;DHT22;55017;52.848;6.748;2022-11-21T11:25:49;4.60;99.90
57058;DHT22;55017;52.848;6.748;2022-11-21T11:28:16;4.50;99.90
57058;DHT22;55017;52.848;6.748;2022-11-21T11:30:44;4.30;99.90
57058;DHT22;55017;52.848;6.748;2022-11-21T11:33:29;4.30;99.90
57058;DHT22;55017;52.848;6.748;2022-11-21T11:36:13;4.10;99.90
57058;DHT22;55017;52.848;6.748;2022-11-21T11:38:44;4.10;99.90
57058;DHT22;55017;52.848;6.748;2022-11-21T11:44:31;3.90;99.90
57058;DHT22;55017;52.848;6.748;2022-11-21T11:47:23;3.70;99.90
57058;DHT22;55017;52.848;6.748;2022-11-21T11:50:08;3.80;99.90
57058;DHT22;55017;52.848;6.748;2022-11-21T11:53:03;3.60;99.90
57058;DHT22;55017;52.848;6.748;2022-11-21T11:58:22;3.40;99.90
57058;DHT22;55017;52.848;6.748;2022-11-21T12:01:02;3.60;99.90
57058;DHT22;55017;52.848;6.748;2022-11-21T12:06:25;3.40;99.90
57058;DHT22;55017;52.848;6.748;2022-11-21T12:08:54;3.40;99.90
57058;DHT22;55017;52.848;6.748;2022-11-21T12:11:58;3.60;99.90
57058;DHT22;55017;52.848;6.748;2022-11-21T12:20:29;3.50;99.90
57058;DHT22;55017;52.848;6.748;2022-11-21T12:22:56;3.60;99.90
57058;DHT22;55017;52.848;6.748;2022-11-21T12:25:30;3.40;99.90
57058;DHT22;55017;52.848;6.748;2022-11-21T12:27:57;3.50;99.90
57058;DHT22;55017;52.848;6.748;2022-11-21T12:31:29;3.40;99.90
57058;DHT22;55017;52.848;6.748;2022-11-21T12:37:01;3.30;99.90
57058;DHT22;55017;52.848;6.748;2022-11-21T12:39:57;3.40;99.90
57058;DHT22;55017;52.848;6.748;2022-11-21T12:42:29;3.40;99.90
57058;DHT22;55017;52.848;6.748;2022-11-21T12:45:30;3.40;99.90
57058;DHT22;55017;52.848;6.748;2022-11-21T12:57:11;3.20;99.90
57058;DHT22;55017;52.848;6.748;2022-11-21T13:05:24;3.40;99.90
57058;DHT22;55017;52.848;6.748;2022-11-21T13:08:01;3.40;99.90
57058;DHT22;55017;52.848;6.748;2022-11-21T13:10:29;3.40;99.90
57058;DHT22;55017;52.848;6.748;2022-11-21T13:15:41;3.40;99.90
57058;DHT22;55017;52.848;6.748;2022-11-21T13:18:28;3.50;99.90
57058;DHT22;55017;52.848;6.748;2022-11-21T13:20:55;3.50;99.90
57058;DHT22;55017;52.848;6.748;2022-11-21T13:23:40;3.50;99.90
57058;DHT22;55017;52.848;6.748;2022-11-21T13:28:51;3.50;99.90
57058;DHT22;55017;52.848;6.748;2022-11-21T13:31:32;3.50;99.90
57058;DHT22;55017;52.848;6.748;2022-11-21T13:33:59;3.60;99.90
57058;DHT22;55017;52.848;6.748;2022-11-21T13:52:30;3.60;99.90
57058;DHT22;55017;52.848;6.748;2022-11-21T14:08:22;3.60;99.90
57058;DHT22;55017;52.848;6.748;2022-11-21T14:10:53;3.60;99.90
57058;DHT22;55017;52.848;6.748;2022-11-21T14:13:30;3.60;99.90
57058;DHT22;55017;52.848;6.748;2022-11-21T14:16:34;3.70;99.90
57058;DHT22;55017;52.848;6.748;2022-11-21T14:19:01;3.60;99.90
57058;DHT22;55017;52.848;6.748;2022-11-21T14:21:29;3.60;99.90
57058;DHT22;55017;52.848;6.748;2022-11-21T14:24:03;3.60;99.90
57058;DHT22;55017;52.848;6.748;2022-11-21T14:26:39;3.60;99.90
57058;DHT22;55017;52.848;6.748;2022-11-21T14:31:52;3.70;99.90
57058;DHT22;55017;52.848;6.748;2022-11-21T14:34:29;3.60;99.90
57058;DHT22;55017;52.848;6.748;2022-11-21T14:36:58;3.60;99.90
57058;DHT22;55017;52.848;6.748;2022-11-21T14:39:26;3.60;99.90
57058;DHT22;55017;52.848;6.748;2022-11-21T14:41:58;3.80;99.90
57058;DHT22;55017;52.848;6.748;2022-11-21T14:44:25;3.70;99.90
57058;DHT22;55017;52.848;6.748;2022-11-21T14:47:01;3.60;99.90
57058;DHT22;55017;52.848;6.748;2022-11-21T14:49:28;3.60;99.90
57058;DHT22;55017;52.848;6.748;2022-11-21T14:54:45;3.60;99.90
57058;DHT22;55017;52.848;6.748;2022-11-21T14:57:23;3.70;99.90
57058;DHT22;55017;52.848;6.748;2022-11-21T14:59:49;3.70;99.90
57058;DHT22;55017;52.848;6.748;2022-11-21T15:02:25;3.70;99.90
57058;DHT22;55017;52.848;6.748;2022-11-21T15:04:52;3.60;99.90
57058;DHT22;55017;52.848;6.748;2022-11-21T15:07:24;3.50;99.90
57058;DHT22;55017;52.848;6.748;2022-11-21T15:09:50;3.50;99.90
57058;DHT22;55017;52.848;6.748;2022-11-21T15:12:27;3.60;99.90
57058;DHT22;55017;52.848;6.748;2022-11-21T15:15:29;3.50;99.90
57058;DHT22;55017;52.848;6.748;2022-11-21T15:17:57;3.40;99.90
57058;DHT22;55017;52.848;6.748;2022-11-21T15:20:24;3.50;99.90
57058;DHT22;55017;52.848;6.748;2022-11-21T15:22:54;3.50;99.90
57058;DHT22;55017;52.848;6.748;2022-11-21T15:25:28;3.50;99.90
57058;DHT22;55017;52.848;6.748;2022-11-21T15:30:30;3.40;99.90
57058;DHT22;55017;52.848;6.748;2022-11-21T15:33:08;3.50;99.90
57058;DHT22;55017;52.848;6.748;2022-11-21T15:38:26;3.50;99.90
57058;DHT22;55017;52.848;6.748;2022-11-21T15:43:40;3.50;99.90
57058;DHT22;55017;52.848;6.748;2022-11-21T15:46:33;3.50;99.90
57058;DHT22;55017;52.848;6.748;2022-11-21T15:48:59;3.50;99.90
57058;DHT22;55017;52.848;6.748;2022-11-21T15:51:31;3.40;99.90
57058;DHT22;55017;52.848;6.748;2022-11-21T15:53:57;3.50;99.90
57058;DHT22;55017;52.848;6.748;2022-11-21T15:56:23;3.50;99.90
57058;DHT22;55017;52.848;6.748;2022-11-21T15:58:49;3.50;99.90
57058;DHT22;55017;52.848;6.748;2022-11-21T16:01:19;3.50;99.90
57058;DHT22;55017;52.848;6.748;2022-11-21T16:03:48;3.40;99.90
57058;DHT22;55017;52.848;6.748;2022-11-21T16:06:15;3.50;99.90
57058;DHT22;55017;52.848;6.748;2022-11-21T16:08:41;3.60;99.90
57058;DHT22;55017;52.848;6.748;2022-11-21T16:11:26;3.40;99.90
57058;DHT22;55017;52.848;6.748;2022-11-21T16:13:53;3.50;99.90
57058;DHT22;55017;52.848;6.748;2022-11-21T16:16:21;3.60;99.90
57058;DHT22;55017;52.848;6.748;2022-11-21T16:18:47;3.60;99.90
57058;DHT22;55017;52.848;6.748;2022-11-21T16:21:13;3.50;99.90
57058;DHT22;55017;52.848;6.748;2022-11-21T16:23:39;3.40;99.90
57058;DHT22;55017;52.848;6.748;2022-11-21T16:26:06;3.50;99.90
57058;DHT22;55017;52.848;6.748;2022-11-21T16:28:32;3.50;99.90
57058;DHT22;55017;52.848;6.748;2022-11-21T16:30:58;3.50;99.90
57058;DHT22;55017;52.848;6.748;2022-11-21T16:33:25;3.50;99.90
57058;DHT22;55017;52.848;6.748;2022-11-21T16:35:50;3.50;99.90
57058;DHT22;55017;52.848;6.748;2022-11-21T16:38:20;3.50;99.90
57058;DHT22;55017;52.848;6.748;2022-11-21T16:40:55;3.40;99.90
57058;DHT22;55017;52.848;6.748;2022-11-21T16:43:21;3.40;99.90
57058;DHT22;55017;52.848;6.748;2022-11-21T16:45:47;3.40;99.90
57058;DHT22;55017;52.848;6.748;2022-11-21T16:48:12;3.30;99.90
57058;DHT22;55017;52.848;6.748;2022-11-21T16:50:38;3.40;99.90
57058;DHT22;55017;52.848;6.748;2022-11-21T16:53:04;3.30;99.90
57058;DHT22;55017;52.848;6.748;2022-11-21T16:55:29;3.30;99.90
57058;DHT22;55017;52.848;6.748;2022-11-21T16:57:55;3.40;99.90
57058;DHT22;55017;52.848;6.748;2022-11-21T17:00:24;3.40;99.90
57058;DHT22;55017;52.848;6.748;2022-11-21T17:02:50;3.10;99.90
57058;DHT22;55017;52.848;6.748;2022-11-21T17:05:16;3.20;99.90
57058;DHT22;55017;52.848;6.748;2022-11-21T17:07:43;3.20;99.90
57058;DHT22;55017;52.848;6.748;2022-11-21T17:10:09;3.30;99.90
57058;DHT22;55017;52.848;6.748;2022-11-21T17:12:36;3.20;99.90
57058;DHT22;55017;52.848;6.748;2022-11-21T17:15:04;3.10;99.90
57058;DHT22;55017;52.848;6.748;2022-11-21T17:17:30;3.10;99.90
57058;DHT22;55017;52.848;6.748;2022-11-21T17:19:56;3.00;99.90
57058;DHT22;55017;52.848;6.748;2022-11-21T17:22:21;3.20;99.90
57058;DHT22;55017;52.848;6.748;2022-11-21T17:24:52;3.00;99.90
57058;DHT22;55017;52.848;6.748;2022-11-21T17:27:22;3.10;99.90
57058;DHT22;55017;52.848;6.748;2022-11-21T17:29:48;3.10;99.90
57058;DHT22;55017;52.848;6.748;2022-11-21T17:32:14;3.00;99.90
57058;DHT22;55017;52.848;6.748;2022-11-21T17:34:40;3.00;99.90
57058;DHT22;55017;52.848;6.748;2022-11-21T17:37:05;2.90;99.90
57058;DHT22;55017;52.848;6.748;2022-11-21T17:39:31;3.00;99.90
57058;DHT22;55017;52.848;6.748;2022-11-21T17:41:57;3.00;99.90
57058;DHT22;55017;52.848;6.748;2022-11-21T17:44:26;3.00;99.90
57058;DHT22;55017;52.848;6.748;2022-11-21T17:46:51;3.00;99.90